createdAt,value
2022-11-08T00:00:25.425Z,69.72
2022-11-08T00:05:25.366Z,69.73
2022-11-08T00:10:25.290Z,69.78
2022-11-08T00:15:25.233Z,69.88
2022-11-08T00:20:25.162Z,69.96
2022-11-08T00:25:25.099Z,70.03
2022-11-08T00:30:25.030Z,70.06
2022-11-08T00:35:24.963Z,70.08
2022-11-08T00:40:24.890Z,70.15
2022-11-08T00:45:24.845Z,70.21
2022-11-08T00:50:24.780Z,70.27
2022-11-08T00:55:24.675Z,70.34
2022-11-08T01:00:24.629Z,70.37
2022-11-08T01:05:43.638Z,70.40
2022-11-08T01:10:36.016Z,70.44
2022-11-08T01:15:36.033Z,70.50
2022-11-08T01:20:35.916Z,70.56
2022-11-08T01:25:35.823Z,70.58
2022-11-08T01:30:35.783Z,70.62
2022-11-08T01:35:35.709Z,70.66
2022-11-08T01:40:35.614Z,70.68
2022-11-08T01:45:35.570Z,70.72
2022-11-08T01:50:35.506Z,70.74
2022-11-08T01:55:35.419Z,70.77
2022-11-08T02:00:35.389Z,70.78
2022-11-08T02:05:35.363Z,70.84
2022-11-08T02:10:35.246Z,70.87
2022-11-08T02:15:35.178Z,70.89
2022-11-08T02:20:35.111Z,70.94
2022-11-08T02:25:35.029Z,70.95
2022-11-08T02:30:34.982Z,70.98
2022-11-08T02:35:34.931Z,70.96
2022-11-08T02:40:34.853Z,70.98
2022-11-08T02:45:34.790Z,71.03
2022-11-08T02:50:34.725Z,71.09
2022-11-08T02:55:34.637Z,71.14
2022-11-08T03:00:34.599Z,71.17
2022-11-08T03:05:34.513Z,71.22
2022-11-08T03:10:34.432Z,71.26
2022-11-08T03:15:34.390Z,71.30
2022-11-08T03:20:34.336Z,71.32
2022-11-08T03:25:34.271Z,71.33
2022-11-08T03:30:34.205Z,71.33
2022-11-08T03:35:34.116Z,71.35
2022-11-08T03:40:34.071Z,71.38
2022-11-08T03:45:34.030Z,71.42
2022-11-08T03:50:33.936Z,71.42
2022-11-08T03:55:33.876Z,71.44
2022-11-08T04:00:33.786Z,71.48
2022-11-08T04:05:33.738Z,71.51
2022-11-08T04:10:33.681Z,71.55
2022-11-08T04:15:33.593Z,71.62
2022-11-08T04:20:33.561Z,71.65
2022-11-08T04:25:35.231Z,71.66
2022-11-08T04:30:33.407Z,71.71
2022-11-08T04:35:33.354Z,71.79
2022-11-08T04:40:33.272Z,71.75
2022-11-08T04:45:33.192Z,71.73
2022-11-08T04:50:33.145Z,71.72
2022-11-08T04:55:33.063Z,71.75
2022-11-08T05:00:32.992Z,71.76
2022-11-08T05:05:32.916Z,71.78
2022-11-08T05:10:32.877Z,71.82
2022-11-08T05:15:47.319Z,71.86
2022-11-08T05:20:39.740Z,71.84
2022-11-08T05:25:39.654Z,71.90
2022-11-08T05:30:39.600Z,71.95
2022-11-08T05:35:39.528Z,72.00
2022-11-08T05:40:39.461Z,72.03
2022-11-08T05:45:39.404Z,72.06
2022-11-08T05:50:39.359Z,72.16
2022-11-08T05:55:39.281Z,72.19
2022-11-08T06:00:39.199Z,72.23
2022-11-08T06:05:39.156Z,72.22
2022-11-08T06:10:40.065Z,72.21
2022-11-08T06:15:39.024Z,72.20
2022-11-08T06:20:38.928Z,72.17
2022-11-08T06:25:38.880Z,72.16
2022-11-08T06:30:38.836Z,72.22
2022-11-08T06:35:38.729Z,72.08
2022-11-08T06:40:38.689Z,71.98
2022-11-08T06:45:38.606Z,71.84
2022-11-08T06:50:38.542Z,71.69
2022-11-08T06:55:38.483Z,71.54
2022-11-08T07:00:38.407Z,71.41
2022-11-08T07:05:38.365Z,71.31
2022-11-08T07:10:38.275Z,71.24
2022-11-08T07:15:38.209Z,71.04
2022-11-08T07:20:38.208Z,70.64
2022-11-08T07:25:38.075Z,70.22
2022-11-08T07:30:38.011Z,69.90
2022-11-08T07:35:37.925Z,69.01
2022-11-08T07:40:37.892Z,67.02
2022-11-08T07:45:37.820Z,67.92
2022-11-08T07:50:37.746Z,68.42
2022-11-08T07:55:37.689Z,68.54
2022-11-08T08:00:37.620Z,68.55
2022-11-08T08:05:37.555Z,66.90
2022-11-08T08:10:37.482Z,61.94
2022-11-08T08:15:37.466Z,62.74
2022-11-08T08:20:37.412Z,63.92
2022-11-08T08:25:37.372Z,63.79
2022-11-08T08:30:37.223Z,63.30
2022-11-08T08:35:37.166Z,64.06
2022-11-08T08:40:37.082Z,63.78
2022-11-08T08:45:37.019Z,63.19
2022-11-08T08:50:36.953Z,63.38
2022-11-08T08:55:36.881Z,63.21
2022-11-08T09:05:37.752Z,59.40
2022-11-08T09:10:36.694Z,56.50
2022-11-08T09:15:36.625Z,56.79
2022-11-08T09:20:36.870Z,52.00
2022-11-08T09:25:36.504Z,53.88
2022-11-08T09:30:36.416Z,53.57
2022-11-08T09:35:36.363Z,52.79
2022-11-08T09:40:36.279Z,53.34
2022-11-08T09:45:36.198Z,56.69
2022-11-08T09:50:36.146Z,58.08
2022-11-08T09:55:36.092Z,59.07
2022-11-08T10:00:36.045Z,59.13
2022-11-08T10:05:35.946Z,59.41
2022-11-08T10:10:36.829Z,59.99
2022-11-08T10:15:35.827Z,60.62
2022-11-08T10:20:35.776Z,61.21
2022-11-08T10:25:35.677Z,61.55
2022-11-08T10:30:35.621Z,61.75
2022-11-08T10:35:35.553Z,61.81
2022-11-08T10:40:35.490Z,61.88
2022-11-08T10:45:35.415Z,61.98
2022-11-08T10:50:35.344Z,62.02
2022-11-08T10:55:35.290Z,61.74
2022-11-08T11:00:35.198Z,61.38
2022-11-08T11:05:35.158Z,61.13
2022-11-08T11:10:35.079Z,60.97
2022-11-08T11:15:35.003Z,60.93
2022-11-08T11:20:34.954Z,60.94
2022-11-08T11:25:34.886Z,60.62
2022-11-08T11:30:34.811Z,60.35
2022-11-08T11:35:34.759Z,60.17
2022-11-08T11:40:34.699Z,60.23
2022-11-08T11:45:34.629Z,60.22
2022-11-08T11:50:34.545Z,60.01
2022-11-08T11:55:34.500Z,59.66
2022-11-08T12:00:34.436Z,59.65
2022-11-08T12:05:34.378Z,59.81
2022-11-08T12:10:34.283Z,59.66
2022-11-08T12:15:34.227Z,59.57
2022-11-08T12:20:34.174Z,59.53
2022-11-08T12:25:34.094Z,59.54
2022-11-08T12:30:34.038Z,59.24
2022-11-08T12:35:33.970Z,58.65
2022-11-08T12:40:33.864Z,58.52
2022-11-08T12:45:33.839Z,58.27
2022-11-08T12:50:33.784Z,58.03
2022-11-08T12:55:33.691Z,57.60
2022-11-08T13:00:33.621Z,57.22
2022-11-08T13:05:33.583Z,57.32
2022-11-08T13:10:33.491Z,57.63
2022-11-08T13:15:33.436Z,57.77
2022-11-08T13:20:33.365Z,57.77
2022-11-08T13:25:33.307Z,58.04
2022-11-08T13:30:33.213Z,58.31
2022-11-08T13:35:33.171Z,58.52
2022-11-08T13:40:33.111Z,58.71
2022-11-08T13:45:33.008Z,58.84
2022-11-08T13:50:32.960Z,59.09
2022-11-08T13:55:32.904Z,59.23
2022-11-08T14:00:32.824Z,59.37
2022-11-08T14:05:32.763Z,59.46
2022-11-08T14:10:32.697Z,59.36
2022-11-08T14:15:32.640Z,59.11
2022-11-08T14:20:32.585Z,58.91
2022-11-08T14:25:32.489Z,58.68
2022-11-08T14:30:32.417Z,58.59
2022-11-08T14:35:32.379Z,58.71
2022-11-08T14:40:32.305Z,58.84
2022-11-08T14:45:32.332Z,58.69
2022-11-08T14:50:32.178Z,58.55
2022-11-08T14:55:32.108Z,58.39
2022-11-08T15:00:32.058Z,58.36
2022-11-08T15:05:31.969Z,58.35
2022-11-08T15:10:31.891Z,58.41
2022-11-08T15:15:31.918Z,58.63
2022-11-08T15:20:31.770Z,58.87
2022-11-08T15:25:31.689Z,59.08
2022-11-08T15:30:31.625Z,59.32
2022-11-08T15:35:31.572Z,59.57
2022-11-08T15:40:31.496Z,59.76
2022-11-08T15:45:31.432Z,60.04
2022-11-08T15:50:31.686Z,60.26
2022-11-08T15:55:31.312Z,60.40
2022-11-08T16:00:31.237Z,60.50
2022-11-08T16:05:31.177Z,60.59
2022-11-08T16:10:31.090Z,60.67
2022-11-08T16:15:31.036Z,60.76
2022-11-08T16:20:30.971Z,60.86
2022-11-08T16:25:30.932Z,60.87
2022-11-08T16:30:30.836Z,60.88
2022-11-08T16:35:30.808Z,60.91
2022-11-08T16:40:30.713Z,60.92
2022-11-08T16:45:58.327Z,60.96
2022-11-08T16:50:31.571Z,61.03
2022-11-08T16:55:30.516Z,61.08
2022-11-08T17:00:30.437Z,61.13
2022-11-08T17:05:30.377Z,61.12
2022-11-08T17:10:30.315Z,61.15
2022-11-08T17:15:30.245Z,61.19
2022-11-08T17:20:30.184Z,61.21
2022-11-08T17:25:30.110Z,61.23
2022-11-08T17:30:30.048Z,61.25
2022-11-08T17:35:29.979Z,61.29
2022-11-08T17:40:29.912Z,61.34
2022-11-08T17:45:29.838Z,61.34
2022-11-08T17:50:29.752Z,61.40
2022-11-08T17:55:29.759Z,61.42
2022-11-08T18:00:29.695Z,61.40
2022-11-08T18:05:29.586Z,61.43
2022-11-08T18:10:29.533Z,61.46
2022-11-08T18:15:29.435Z,61.51
2022-11-08T18:25:29.306Z,61.55
2022-11-08T18:30:29.269Z,61.57
2022-11-08T18:35:29.189Z,61.58
2022-11-08T18:40:29.120Z,61.61
2022-11-08T18:45:29.035Z,61.63
2022-11-08T18:50:28.972Z,61.65
2022-11-08T18:55:28.939Z,61.65
2022-11-08T19:00:28.855Z,61.70
2022-11-08T19:05:28.803Z,61.71
2022-11-08T19:10:28.749Z,61.79
2022-11-08T19:15:28.651Z,61.83
2022-11-08T19:20:28.577Z,61.85
2022-11-08T19:25:28.548Z,61.88
2022-11-08T19:30:28.468Z,61.89
2022-11-08T19:35:28.404Z,61.93
2022-11-08T19:40:32.057Z,61.98
2022-11-08T19:45:28.270Z,62.06
2022-11-08T19:50:28.193Z,62.10
2022-11-08T19:55:28.108Z,62.15
2022-11-08T20:00:28.042Z,62.21
2022-11-08T20:05:27.985Z,62.25
2022-11-08T20:10:27.925Z,62.28
2022-11-08T20:15:27.842Z,62.34
2022-11-08T20:20:27.792Z,62.34
2022-11-08T20:25:27.713Z,62.37
2022-11-08T20:30:27.634Z,62.39
2022-11-08T20:35:27.587Z,62.50
2022-11-08T20:40:27.558Z,62.78
2022-11-08T20:45:27.436Z,63.12
2022-11-08T20:50:27.394Z,63.65
2022-11-08T20:55:27.321Z,64.00
2022-11-08T21:00:52.089Z,64.18
2022-11-08T21:05:28.208Z,64.28
2022-11-08T21:10:42.048Z,64.39
2022-11-08T21:15:28.085Z,64.57
2022-11-08T21:20:26.972Z,64.75
2022-11-08T21:25:26.931Z,64.94
2022-11-08T21:30:26.879Z,65.06
2022-11-08T21:35:26.802Z,65.24
2022-11-08T21:40:26.732Z,65.33
2022-11-08T21:45:26.654Z,65.38
2022-11-08T21:50:26.608Z,65.45
2022-11-08T21:55:26.506Z,65.52
2022-11-08T22:00:26.468Z,65.74
2022-11-08T22:05:26.384Z,65.93
2022-11-08T22:10:26.326Z,65.97
2022-11-08T22:15:26.259Z,65.99
2022-11-08T22:20:26.347Z,66.08
2022-11-08T22:25:26.138Z,66.18
2022-11-08T22:30:26.038Z,66.23
2022-11-08T22:35:26.029Z,66.38
2022-11-08T22:40:25.932Z,66.43
2022-11-08T22:45:25.869Z,66.49
2022-11-08T22:50:25.807Z,66.64
2022-11-08T22:55:25.734Z,66.67
2022-11-08T23:00:25.690Z,66.87
2022-11-08T23:05:25.599Z,66.87
2022-11-08T23:10:25.522Z,67.04
2022-11-08T23:15:25.578Z,67.06
2022-11-08T23:20:25.402Z,67.10
2022-11-08T23:25:25.326Z,67.25
2022-11-08T23:30:25.285Z,67.27
2022-11-08T23:35:25.193Z,67.25
2022-11-08T23:40:25.138Z,67.25
2022-11-08T23:45:25.054Z,67.28
2022-11-08T23:50:24.988Z,67.34
2022-11-08T23:55:24.926Z,67.39
